Time;durP1;ratioP1;P1;durP2;ratioP2;P2;SDS_P1;SDS_P2;PMS_P1;PMS_P2;Temp;Humidity;BMP_temperature;BMP_pressure;BME280_temperature;BME280_humidity;BME280_pressure;Samples;Min_cycle;Max_cycle;Signal;HPM_P1;HPM_P2
2024/01/11 00:00:51;;;;;;;25.70;13.40;;;;;;;-147.86;100.00;-17609.17;105241;1264;59963;-45
2024/01/11 00:03:18;;;;;;;25.40;13.00;;;;;;;-147.86;100.00;-17609.17;105366;1262;72187;-44
2024/01/11 00:05:46;;;;;;;22.70;13.30;;;;;;;-147.86;100.00;-17609.17;105207;1263;63718;-44
2024/01/11 00:08:14;;;;;;;22.40;12.00;;;;;;;-147.86;100.00;-17609.17;105275;1262;71366;-44
2024/01/11 00:10:41;;;;;;;29.00;14.70;;;;;;;-147.86;100.00;-17609.17;105259;1260;204508;-44
2024/01/11 00:13:09;;;;;;;26.20;13.50;;;;;;;-147.86;100.00;-17609.17;105416;1258;59301;-44
2024/01/11 00:15:37;;;;;;;23.40;13.00;;;;;;;-147.86;100.00;-17609.17;105428;1264;72171;-45
2024/01/11 00:18:06;;;;;;;30.20;13.50;;;;;;;-147.86;100.00;-17609.17;105455;1263;63920;-44
2024/01/11 00:20:34;;;;;;;27.10;13.10;;;;;;;-147.86;100.00;-17609.17;105450;1259;71392;-45
2024/01/11 00:23:03;;;;;;;29.00;14.90;;;;;;;-147.86;100.00;-17609.17;105480;1264;59772;-44
2024/01/11 00:25:30;;;;;;;27.20;13.90;;;;;;;-147.86;100.00;-17609.17;105466;1258;59730;-45
2024/01/11 00:27:58;;;;;;;26.70;14.60;;;;;;;-147.86;100.00;-17609.17;105424;1258;71611;-45
2024/01/11 00:30:26;;;;;;;27.30;13.70;;;;;;;-147.86;100.00;-17609.17;105424;1257;65145;-44
2024/01/11 00:32:53;;;;;;;23.20;13.30;;;;;;;-147.86;100.00;-17609.17;105469;1257;72597;-44
2024/01/11 00:35:21;;;;;;;25.00;12.80;;;;;;;-147.86;100.00;-17609.17;105482;1260;59762;-44
2024/01/11 00:37:49;;;;;;;26.90;14.90;;;;;;;-147.86;100.00;-17609.17;105447;1259;59643;-44
2024/01/11 00:40:17;;;;;;;26.40;13.10;;;;;;;-147.86;100.00;-17609.17;105482;1257;73051;-45
2024/01/11 00:42:44;;;;;;;21.80;12.70;;;;;;;-147.86;100.00;-17609.17;105484;1257;63848;-44
2024/01/11 00:45:13;;;;;;;21.90;11.20;;;;;;;-147.86;100.00;-17609.17;105587;1256;71803;-44
2024/01/11 00:47:40;;;;;;;18.90;11.40;;;;;;;-147.86;100.00;-17609.17;105648;1255;60825;-44
2024/01/11 00:50:09;;;;;;;25.30;12.50;;;;;;;-147.86;100.00;-17609.17;105650;1258;59748;-44
2024/01/11 00:52:38;;;;;;;28.80;12.80;;;;;;;-147.86;100.00;-17609.17;105691;1254;72990;-44
2024/01/11 00:55:07;;;;;;;26.20;13.30;;;;;;;-147.86;100.00;-17609.17;105614;1254;65285;-44
2024/01/11 00:57:34;;;;;;;26.70;12.60;;;;;;;-147.86;100.00;-17609.17;105674;1256;71512;-45
2024/01/11 01:00:03;;;;;;;26.30;12.30;;;;;;;-147.86;100.00;-17609.17;105619;1258;59755;-45
2024/01/11 01:02:31;;;;;;;22.40;12.30;;;;;;;-147.86;100.00;-17609.17;105637;1254;59582;-45
2024/01/11 01:04:58;;;;;;;23.30;10.90;;;;;;;-147.86;100.00;-17609.17;105594;1256;72986;-45
2024/01/11 01:07:26;;;;;;;25.60;12.40;;;;;;;-147.86;100.00;-17609.17;105657;1259;63992;-45
2024/01/11 01:09:54;;;;;;;28.40;12.40;;;;;;;-147.86;100.00;-17609.17;105615;1256;71434;-44
2024/01/11 01:12:21;;;;;;;23.40;13.00;;;;;;;-147.86;100.00;-17609.17;105605;1259;59691;-44
2024/01/11 01:14:49;;;;;;;29.20;12.70;;;;;;;-147.86;100.00;-17609.17;105619;1255;59560;-43
2024/01/11 01:17:17;;;;;;;21.60;12.30;;;;;;;-147.86;100.00;-17609.17;105651;1255;72106;-45
2024/01/11 01:19:45;;;;;;;23.30;12.50;;;;;;;-147.86;100.00;-17609.17;105655;1259;65175;-44
2024/01/11 01:22:13;;;;;;;20.50;12.10;;;;;;;-147.86;100.00;-17609.17;105709;1256;71624;-43
2024/01/11 01:24:41;;;;;;;27.40;13.40;;;;;;;-147.86;100.00;-17609.17;105634;1257;59869;-43
2024/01/11 01:27:09;;;;;;;33.10;14.80;;;;;;;-147.86;100.00;-17609.17;105704;1253;60028;-42
2024/01/11 01:29:36;;;;;;;30.50;15.20;;;;;;;-147.86;100.00;-17609.17;105606;1253;73130;-43
2024/01/11 01:32:05;;;;;;;25.90;13.80;;;;;;;-147.86;100.00;-17609.17;105705;1255;65324;-44
2024/01/11 01:34:33;;;;;;;30.70;14.70;;;;;;;-147.86;100.00;-17609.17;105666;1254;71675;-44
2024/01/11 01:37:01;;;;;;;33.20;16.80;;;;;;;-147.86;100.00;-17609.17;105653;1254;59693;-43
2024/01/11 01:39:29;;;;;;;34.30;16.40;;;;;;;-147.86;100.00;-17609.17;105688;1253;59641;-45
2024/01/11 01:41:57;;;;;;;31.00;15.80;;;;;;;-147.86;100.00;-17609.17;105634;1253;72012;-44
2024/01/11 01:44:25;;;;;;;34.20;16.70;;;;;;;-147.86;100.00;-17609.17;105665;1258;64008;-44
2024/01/11 01:46:53;;;;;;;33.90;17.20;;;;;;;-147.86;100.00;-17609.17;105676;1258;71480;-44
2024/01/11 01:49:22;;;;;;;30.10;15.30;;;;;;;-147.86;100.00;-17609.17;105667;1256;59712;-45
2024/01/11 01:51:52;;;;;;;35.00;17.00;;;;;;;-147.86;100.00;-17609.17;105677;1253;60058;-45
2024/01/11 01:54:19;;;;;;;31.90;15.70;;;;;;;-147.86;100.00;-17609.17;105690;1254;71909;-44
2024/01/11 01:56:47;;;;;;;30.00;16.00;;;;;;;-147.86;100.00;-17609.17;105632;1254;63370;-44
2024/01/11 01:59:16;;;;;;;30.60;15.70;;;;;;;-147.86;100.00;-17609.17;105724;1258;71786;-45
2024/01/11 02:01:44;;;;;;;33.50;16.70;;;;;;;-147.86;100.00;-17609.17;105671;1254;59767;-44
2024/01/11 02:04:12;;;;;;;31.80;15.70;;;;;;;-147.86;100.00;-17609.17;105672;1259;59735;-44
2024/01/11 03:07:54;;;;;;;;;;;;;;;-147.86;100.00;-17609.17;102925;1292;600889;-44
2024/01/11 03:10:23;;;;;;;26.70;12.80;;;;;;;-147.86;100.00;-17609.17;105156;1268;60736;-44
2024/01/11 03:12:51;;;;;;;27.90;11.80;;;;;;;-147.86;100.00;-17609.17;105067;1267;59366;-45
2024/01/11 03:15:18;;;;;;;30.00;13.30;;;;;;;-147.86;100.00;-17609.17;105058;1268;71051;-44
2024/01/11 03:17:47;;;;;;;26.20;13.10;;;;;;;-147.86;100.00;-17609.17;105143;1270;64009;-44
2024/01/11 03:20:15;;;;;;;30.90;12.80;;;;;;;-147.86;100.00;-17609.17;105011;1269;71358;-45
2024/01/11 03:22:46;;;;;;;28.30;13.30;;;;;;;-147.86;100.00;-17609.17;105047;1267;221947;-44
2024/01/11 03:25:14;;;;;;;27.10;12.70;;;;;;;-147.86;100.00;-17609.17;105243;1262;59343;-44
2024/01/11 03:27:42;;;;;;;24.80;11.70;;;;;;;-147.86;100.00;-17609.17;105208;1266;72165;-45
2024/01/11 03:30:10;;;;;;;23.90;11.10;;;;;;;-147.86;100.00;-17609.17;105235;1260;64388;-45
2024/01/11 03:32:38;;;;;;;26.10;12.60;;;;;;;-147.86;100.00;-17609.17;105235;1266;71399;-45
2024/01/11 03:35:10;;;;;;;27.30;12.80;;;;;;;-147.86;100.00;-17609.17;105283;1267;59742;-45
2024/01/11 03:37:37;;;;;;;25.40;12.40;;;;;;;-147.86;100.00;-17609.17;105259;1268;59653;-45
2024/01/11 03:40:06;;;;;;;24.00;11.60;;;;;;;-147.86;100.00;-17609.17;105199;1266;72191;-45
2024/01/11 03:42:33;;;;;;;22.30;11.20;;;;;;;-147.86;100.00;-17609.17;105222;1264;63896;-44
2024/01/11 03:45:01;;;;;;;24.00;11.10;;;;;;;-147.86;100.00;-17609.17;105643;1257;71723;-45
2024/01/11 03:47:29;;;;;;;19.30;10.10;;;;;;;-147.86;100.00;-17609.17;105630;1261;59710;-45
2024/01/11 03:49:57;;;;;;;23.20;10.90;;;;;;;-147.86;100.00;-17609.17;105650;1266;59656;-45
2024/01/11 03:52:25;;;;;;;20.90;9.70;;;;;;;-147.86;100.00;-17609.17;105643;1255;73119;-45
2024/01/11 03:54:53;;;;;;;23.90;11.20;;;;;;;-147.86;100.00;-17609.17;105637;1254;63151;-45
2024/01/11 03:57:20;;;;;;;18.10;9.50;;;;;;;-147.86;100.00;-17609.17;105631;1260;71421;-45
2024/01/11 03:59:48;;;;;;;22.50;10.60;;;;;;;-147.86;100.00;-17609.17;105668;1258;59736;-45
2024/01/11 04:02:17;;;;;;;18.00;9.70;;;;;;;-147.86;100.00;-17609.17;105631;1261;59557;-45
2024/01/11 04:04:45;;;;;;;17.90;9.50;;;;;;;-147.86;100.00;-17609.17;105631;1255;71731;-45
2024/01/11 04:07:13;;;;;;;22.00;10.30;;;;;;;-147.86;100.00;-17609.17;105667;1256;64001;-45
2024/01/11 04:09:40;;;;;;;21.30;9.80;;;;;;;-147.86;100.00;-17609.17;105614;1258;70442;-45
2024/01/11 04:12:08;;;;;;;19.80;9.10;;;;;;;-147.86;100.00;-17609.17;105621;1257;59733;-45
2024/01/11 04:14:42;;;;;;;19.80;9.20;;;;;;;-147.86;100.00;-17609.17;105611;1260;59628;-45
2024/01/11 04:17:09;;;;;;;23.30;11.60;;;;;;;-147.86;100.00;-17609.17;105639;1260;73000;-44
2024/01/11 04:19:37;;;;;;;19.80;9.10;;;;;;;-147.86;100.00;-17609.17;105574;1257;63937;-45
2024/01/11 04:22:06;;;;;;;17.70;9.50;;;;;;;-147.86;100.00;-17609.17;105621;1258;72601;-45
2024/01/11 04:24:33;;;;;;;16.60;8.70;;;;;;;-147.86;100.00;-17609.17;105575;1257;61024;-46
2024/01/11 04:27:01;;;;;;;14.40;8.70;;;;;;;-147.86;100.00;-17609.17;105604;1261;59657;-44
2024/01/11 04:29:29;;;;;;;16.60;9.10;;;;;;;-147.86;100.00;-17609.17;105608;1260;71975;-45
2024/01/11 04:31:58;;;;;;;18.30;9.10;;;;;;;-147.86;100.00;-17609.17;105632;1261;63010;-45
2024/01/11 04:34:26;;;;;;;20.00;9.80;;;;;;;-147.86;100.00;-17609.17;105626;1261;71441;-44
2024/01/11 04:36:55;;;;;;;20.00;9.30;;;;;;;-147.86;100.00;-17609.17;109198;1257;61138;-42
2024/01/11 04:39:22;;;;;;;17.00;8.60;;;;;;;-147.86;100.00;-17609.17;109246;1256;58997;-42
2024/01/11 04:41:50;;;;;;;18.40;8.70;;;;;;;-147.86;100.00;-17609.17;109241;1257;72988;-43
2024/01/11 04:44:17;;;;;;;16.70;9.20;;;;;;;-147.86;100.00;-17609.17;109287;1256;65154;-43
2024/01/11 04:46:45;;;;;;;18.00;8.80;;;;;;;-147.86;100.00;-17609.17;109252;1257;71396;-43
2024/01/11 04:49:13;;;;;;;18.60;9.50;;;;;;;-147.86;100.00;-17609.17;109268;1255;59618;-43
2024/01/11 04:51:40;;;;;;;15.10;8.80;;;;;;;-147.86;100.00;-17609.17;109327;1256;59993;-43
2024/01/11 04:54:09;;;;;;;13.60;7.90;;;;;;;-147.86;100.00;-17609.17;109306;1256;73006;-43
2024/01/11 04:56:36;;;;;;;16.20;8.80;;;;;;;-147.86;100.00;-17609.17;109304;1256;65013;-43
2024/01/11 04:59:04;;;;;;;16.80;8.30;;;;;;;-147.86;100.00;-17609.17;109313;1256;71430;-43
2024/01/11 05:01:32;;;;;;;15.10;8.40;;;;;;;-147.86;100.00;-17609.17;109308;1255;58029;-43
2024/01/11 05:07:05;;;;;;;;;;;;;;;-147.86;100.00;-17609.17;102720;1294;600113;-44
2024/01/11 05:09:32;;;;;;;16.10;8.80;;;;;;;-147.86;100.00;-17609.17;104826;1272;60886;-44
2024/01/11 05:12:00;;;;;;;14.80;8.10;;;;;;;-147.86;100.00;-17609.17;104836;1272;59510;-45
2024/01/11 05:14:28;;;;;;;18.00;9.00;;;;;;;-147.86;100.00;-17609.17;104801;1267;71321;-44
2024/01/11 05:16:56;;;;;;;18.50;9.30;;;;;;;-147.86;100.00;-17609.17;104892;1273;65198;-44
2024/01/11 05:19:24;;;;;;;26.40;10.50;;;;;;;-147.86;100.00;-17609.17;104853;1267;71373;-45
2024/01/11 05:21:52;;;;;;;17.40;10.10;;;;;;;-147.86;100.00;-17609.17;104981;1264;189273;-45
2024/01/11 05:24:20;;;;;;;18.90;10.00;;;;;;;-147.86;100.00;-17609.17;105108;1268;59420;-45
2024/01/11 05:26:48;;;;;;;24.00;10.40;;;;;;;-147.86;100.00;-17609.17;105138;1264;70973;-46
2024/01/11 05:29:17;;;;;;;24.60;11.40;;;;;;;-147.86;100.00;-17609.17;105108;1268;64075;-44
2024/01/11 05:31:45;;;;;;;19.20;10.60;;;;;;;-147.86;100.00;-17609.17;105055;1268;71354;-46
2024/01/11 05:34:13;;;;;;;21.20;11.50;;;;;;;-147.86;100.00;-17609.17;105108;1269;59858;-45
2024/01/11 05:36:41;;;;;;;25.60;11.50;;;;;;;-147.86;100.00;-17609.17;105133;1263;59573;-44
2024/01/11 05:39:09;;;;;;;20.50;11.30;;;;;;;-147.86;100.00;-17609.17;105098;1269;71141;-44
2024/01/11 05:41:37;;;;;;;22.00;11.30;;;;;;;-147.86;100.00;-17609.17;105131;1268;65155;-43
2024/01/11 05:44:05;;;;;;;23.70;11.30;;;;;;;-147.86;100.00;-17609.17;105124;1269;71410;-45
2024/01/11 05:46:33;;;;;;;27.80;13.00;;;;;;;-147.86;100.00;-17609.17;105094;1266;60056;-45
2024/01/11 05:49:00;;;;;;;25.40;11.90;;;;;;;-147.86;100.00;-17609.17;105073;1268;59602;-44
2024/01/11 05:51:28;;;;;;;29.30;13.40;;;;;;;-147.86;100.00;-17609.17;105092;1263;71753;-45
2024/01/11 05:53:58;;;;;;;22.20;13.20;;;;;;;-147.86;100.00;-17609.17;105122;1263;63929;-45
2024/01/11 05:56:25;;;;;;;26.00;12.20;;;;;;;-147.86;100.00;-17609.17;105074;1264;72688;-46
2024/01/11 05:58:53;;;;;;;24.50;12.50;;;;;;;-147.86;100.00;-17609.17;105576;1257;59741;-45
2024/01/11 06:01:21;;;;;;;27.70;13.10;;;;;;;-147.86;100.00;-17609.17;105660;1260;60016;-44
2024/01/11 06:03:50;;;;;;;29.40;14.50;;;;;;;-147.86;100.00;-17609.17;105565;1257;71778;-45
2024/01/11 06:06:17;;;;;;;28.90;14.20;;;;;;;-147.86;100.00;-17609.17;105640;1258;63981;-44
2024/01/11 06:08:48;;;;;;;28.60;14.20;;;;;;;-147.86;100.00;-17609.17;105575;1256;70424;-44
2024/01/11 06:11:18;;;;;;;30.60;14.30;;;;;;;-147.86;100.00;-17609.17;105597;1260;59702;-45
2024/01/11 06:13:47;;;;;;;27.90;14.30;;;;;;;-147.86;100.00;-17609.17;105616;1263;59711;-44
2024/01/11 06:16:14;;;;;;;29.20;13.80;;;;;;;-147.86;100.00;-17609.17;105703;1257;73013;-45
2024/01/11 06:18:42;;;;;;;27.90;14.80;;;;;;;-147.86;100.00;-17609.17;105525;1260;63913;-44
2024/01/11 06:21:10;;;;;;;31.70;14.90;;;;;;;-147.86;100.00;-17609.17;105600;1259;71408;-45
2024/01/11 06:23:38;;;;;;;28.20;15.00;;;;;;;-147.86;100.00;-17609.17;105543;1260;59691;-44
2024/01/11 06:26:07;;;;;;;32.70;14.50;;;;;;;-147.86;100.00;-17609.17;105619;1262;59651;-46
2024/01/11 06:28:35;;;;;;;32.70;15.00;;;;;;;-147.86;100.00;-17609.17;105561;1258;71947;-45
2024/01/11 06:31:03;;;;;;;28.90;15.70;;;;;;;-147.86;100.00;-17609.17;105579;1257;64582;-46
2024/01/11 06:33:32;;;;;;;26.00;13.20;;;;;;;-147.86;100.00;-17609.17;105604;1257;73030;-44
2024/01/11 06:36:00;;;;;;;28.30;15.00;;;;;;;-147.86;100.00;-17609.17;105544;1261;59756;-44
2024/01/11 06:38:28;;;;;;;30.90;15.00;;;;;;;-147.86;100.00;-17609.17;105541;1262;59560;-45
2024/01/11 06:40:57;;;;;;;24.40;12.90;;;;;;;-147.86;100.00;-17609.17;105569;1257;71746;-45
2024/01/11 06:43:24;;;;;;;28.90;14.80;;;;;;;-147.86;100.00;-17609.17;105598;1260;63904;-45
2024/01/11 06:45:53;;;;;;;30.00;14.90;;;;;;;-147.86;100.00;-17609.17;105554;1262;72691;-44
2024/01/11 06:48:20;;;;;;;30.60;16.00;;;;;;;-147.86;100.00;-17609.17;105539;1258;60197;-45
2024/01/11 06:50:48;;;;;;;27.80;13.90;;;;;;;-147.86;100.00;-17609.17;105622;1261;59779;-43
2024/01/11 06:53:16;;;;;;;31.80;14.50;;;;;;;-147.86;100.00;-17609.17;105575;1255;71831;-45
2024/01/11 06:55:44;;;;;;;33.40;15.60;;;;;;;-147.86;100.00;-17609.17;105530;1260;63919;-45
2024/01/11 06:58:12;;;;;;;28.80;15.60;;;;;;;-147.86;100.00;-17609.17;105561;1261;71378;-44
2024/01/11 07:00:42;;;;;;;30.10;16.60;;;;;;;-147.86;100.00;-17609.17;105549;1261;59685;-45
2024/01/11 07:03:11;;;;;;;32.70;15.30;;;;;;;-147.86;100.00;-17609.17;105565;1260;59567;-46
2024/01/11 07:05:39;;;;;;;26.20;15.10;;;;;;;-147.86;100.00;-17609.17;105664;1260;73039;-45
2024/01/11 07:08:07;;;;;;;32.20;16.10;;;;;;;-147.86;100.00;-17609.17;105532;1260;65277;-44
2024/01/11 07:10:34;;;;;;;34.70;15.60;;;;;;;-147.86;100.00;-17609.17;105565;1257;74981;-45
2024/01/11 07:13:02;;;;;;;28.50;15.00;;;;;;;-147.86;100.00;-17609.17;105536;1261;61687;-45
2024/01/11 07:15:30;;;;;;;36.10;15.20;;;;;;;-147.86;100.00;-17609.17;105526;1263;59532;-44
2024/01/11 07:17:58;;;;;;;31.00;15.30;;;;;;;-147.86;100.00;-17609.17;105540;1261;73046;-45
2024/01/11 07:20:26;;;;;;;28.50;14.80;;;;;;;-147.86;100.00;-17609.17;105537;1260;63954;-45
2024/01/11 07:22:54;;;;;;;30.00;15.10;;;;;;;-147.86;100.00;-17609.17;105545;1258;72618;-44
2024/01/11 07:25:21;;;;;;;29.90;15.70;;;;;;;-147.86;100.00;-17609.17;105529;1258;59555;-44
2024/01/11 07:27:49;;;;;;;26.20;15.00;;;;;;;-147.86;100.00;-17609.17;105574;1261;59634;-45
2024/01/11 07:30:18;;;;;;;25.20;13.80;;;;;;;-147.86;100.00;-17609.17;105605;1257;72050;-45
2024/01/11 07:32:46;;;;;;;32.00;15.10;;;;;;;-147.86;100.00;-17609.17;105731;1254;65334;-45
2024/01/11 07:35:14;;;;;;;24.90;14.20;;;;;;;-147.86;100.00;-17609.17;105681;1257;71419;-44
2024/01/11 07:37:45;;;;;;;24.40;14.00;;;;;;;-147.86;100.00;-17609.17;105667;1254;59705;-45
2024/01/11 07:40:13;;;;;;;29.20;13.30;;;;;;;-147.86;100.00;-17609.17;105849;1257;59558;-45
2024/01/11 07:42:41;;;;;;;27.60;14.00;;;;;;;-147.86;100.00;-17609.17;105703;1258;72956;-45
2024/01/11 07:45:12;;;;;;;23.50;12.80;;;;;;;-147.86;100.00;-17609.17;105738;1254;64300;-44
2024/01/11 07:47:40;;;;;;;26.70;14.10;;;;;;;-147.86;100.00;-17609.17;105641;1258;72701;-45
2024/01/11 07:50:15;;;;;;;26.80;13.90;;;;;;;-147.86;100.00;-17609.17;105703;1257;59734;-43
2024/01/11 07:52:43;;;;;;;27.00;14.10;;;;;;;-147.86;100.00;-17609.17;105862;1251;60097;-45
2024/01/11 07:55:12;;;;;;;24.70;13.00;;;;;;;-147.86;100.00;-17609.17;105663;1254;71761;-45
2024/01/11 07:57:40;;;;;;;25.90;14.20;;;;;;;-147.86;100.00;-17609.17;105665;1257;63935;-45
2024/01/11 08:00:10;;;;;;;26.50;13.70;;;;;;;-147.86;100.00;-17609.17;105847;1257;72435;-44
2024/01/11 08:02:40;;;;;;;22.40;12.80;;;;;;;-147.86;100.00;-17609.17;105666;1254;59663;-45
2024/01/11 08:05:08;;;;;;;21.90;12.60;;;;;;;-147.86;100.00;-17609.17;105701;1251;59682;-44
2024/01/11 08:07:36;;;;;;;22.20;12.40;;;;;;;-147.86;100.00;-17609.17;105709;1257;75442;-44
2024/01/11 08:10:06;;;;;;;25.60;12.30;;;;;;;-147.86;100.00;-17609.17;105724;1254;65258;-45
2024/01/11 08:12:34;;;;;;;28.80;14.10;;;;;;;-147.86;100.00;-17609.17;105723;1254;73971;-44
2024/01/11 08:15:02;;;;;;;28.80;14.10;;;;;;;-147.86;100.00;-17609.17;105669;1253;59708;-45
2024/01/11 08:17:30;;;;;;;26.30;13.70;;;;;;;-147.86;100.00;-17609.17;105753;1254;62122;-45
2024/01/11 08:19:58;;;;;;;24.80;13.40;;;;;;;-147.86;100.00;-17609.17;105689;1254;71767;-44
2024/01/11 08:22:28;;;;;;;27.20;15.10;;;;;;;-147.86;100.00;-17609.17;105677;1257;65287;-44
2024/01/11 08:24:56;;;;;;;28.10;14.80;;;;;;;-147.86;100.00;-17609.17;105834;1255;71686;-45
2024/01/11 08:27:24;;;;;;;24.90;13.80;;;;;;;-147.86;100.00;-17609.17;105789;1254;59771;-45
2024/01/11 08:29:52;;;;;;;31.10;15.20;;;;;;;-147.86;100.00;-17609.17;105665;1255;62290;-45
2024/01/11 08:32:19;;;;;;;27.40;15.30;;;;;;;-147.86;100.00;-17609.17;105672;1257;75323;-44
2024/01/11 08:34:58;;;;;;;30.40;15.60;;;;;;;-147.86;100.00;-17609.17;105699;1253;65366;-45
2024/01/11 08:37:27;;;;;;;33.50;17.10;;;;;;;-147.86;100.00;-17609.17;105645;1257;72691;-45
2024/01/11 08:39:55;;;;;;;29.40;16.10;;;;;;;-147.86;100.00;-17609.17;105664;1257;60842;-45
2024/01/11 08:42:23;;;;;;;31.10;16.60;;;;;;;-147.86;100.00;-17609.17;105709;1257;59647;-45
2024/01/11 08:44:51;;;;;;;29.80;16.40;;;;;;;-147.86;100.00;-17609.17;105682;1257;72945;-45
2024/01/11 08:47:19;;;;;;;35.70;17.00;;;;;;;-147.86;100.00;-17609.17;105843;1257;63896;-45
2024/01/11 08:49:47;;;;;;;35.00;16.60;;;;;;;-147.86;100.00;-17609.17;105821;1257;71539;-45
2024/01/11 08:52:15;;;;;;;27.30;12.90;;;;;;;-147.86;100.00;-17609.17;105693;1256;59762;-45
2024/01/11 08:54:42;;;;;;;31.30;15.30;;;;;;;-147.86;100.00;-17609.17;105903;1254;60502;-45
2024/01/11 08:57:10;;;;;;;35.70;16.90;;;;;;;-147.86;100.00;-17609.17;105674;1253;71838;-45
2024/01/11 08:59:38;;;;;;;31.90;17.10;;;;;;;-147.86;100.00;-17609.17;105845;1251;63937;-45
2024/01/11 09:02:06;;;;;;;29.90;15.80;;;;;;;-147.86;100.00;-17609.17;105703;1257;71205;-45
2024/01/11 09:07:38;;;;;;;;;;;;;;;-147.86;100.00;-17609.17;102796;1294;600244;-44
2024/01/11 09:10:11;;;;;;;40.80;16.90;;;;;;;-147.86;100.00;-17609.17;105162;1266;59753;-45
2024/01/11 09:12:39;;;;;;;33.90;16.70;;;;;;;-147.86;100.00;-17609.17;105084;1269;59337;-45
2024/01/11 09:15:07;;;;;;;37.70;17.60;;;;;;;-147.86;100.00;-17609.17;105025;1266;71014;-46
2024/01/11 09:17:35;;;;;;;35.70;16.50;;;;;;;-147.86;100.00;-17609.17;105095;1264;63851;-44
2024/01/11 09:20:05;;;;;;;36.30;17.10;;;;;;;-147.86;100.00;-17609.17;105036;1270;72631;-44
2024/01/11 09:22:33;;;;;;;34.80;17.60;;;;;;;-147.86;100.00;-17609.17;105066;1269;59275;-45
2024/01/11 09:25:01;;;;;;;32.80;16.80;;;;;;;-147.86;100.00;-17609.17;105202;1267;59386;-44
2024/01/11 09:27:28;;;;;;;38.90;18.70;;;;;;;-147.86;100.00;-17609.17;105184;1262;70889;-45
2024/01/11 09:29:56;;;;;;;40.60;17.70;;;;;;;-147.86;100.00;-17609.17;105193;1264;65231;-45
2024/01/11 09:32:25;;;;;;;36.80;17.40;;;;;;;-147.86;100.00;-17609.17;105229;1264;72601;-45
2024/01/11 09:34:53;;;;;;;32.30;16.80;;;;;;;-147.86;100.00;-17609.17;105206;1266;59640;-45
2024/01/11 09:37:21;;;;;;;36.00;17.70;;;;;;;-147.86;100.00;-17609.17;105947;1257;59602;-44
2024/01/11 09:39:48;;;;;;;33.80;16.60;;;;;;;-147.86;100.00;-17609.17;105950;1251;72965;-45
2024/01/11 09:42:16;;;;;;;38.10;18.30;;;;;;;-147.86;100.00;-17609.17;105914;1251;63864;-45
2024/01/11 09:44:44;;;;;;;33.70;16.60;;;;;;;-147.86;100.00;-17609.17;105846;1260;71481;-45
2024/01/11 09:47:12;;;;;;;33.00;16.60;;;;;;;-147.86;100.00;-17609.17;106018;1255;59646;-45
2024/01/11 09:49:44;;;;;;;35.50;16.10;;;;;;;-147.86;100.00;-17609.17;105943;1257;59627;-45
2024/01/11 09:52:14;;;;;;;30.50;15.70;;;;;;;-147.86;100.00;-17609.17;105971;1257;75372;-43
2024/01/11 09:54:42;;;;;;;33.50;17.40;;;;;;;-147.86;100.00;-17609.17;105967;1256;63929;-45
2024/01/11 09:57:10;;;;;;;38.70;16.50;;;;;;;-147.86;100.00;-17609.17;105917;1257;71337;-45
2024/01/11 09:59:38;;;;;;;34.30;16.50;;;;;;;-147.86;100.00;-17609.17;105935;1256;59718;-45
2024/01/11 10:02:08;;;;;;;32.20;17.00;;;;;;;-147.86;100.00;-17609.17;105699;1251;59837;-45
2024/01/11 10:04:37;;;;;;;32.20;15.80;;;;;;;-147.86;100.00;-17609.17;105754;1251;71755;-45
2024/01/11 10:07:06;;;;;;;31.80;15.80;;;;;;;-147.86;100.00;-17609.17;105921;1257;68106;-45
2024/01/11 10:09:34;;;;;;;28.10;15.10;;;;;;;-147.86;100.00;-17609.17;105923;1256;73886;-44
2024/01/11 10:12:03;;;;;;;27.00;14.30;;;;;;;-147.86;100.00;-17609.17;105949;1254;60790;-44
2024/01/11 10:14:31;;;;;;;31.70;15.10;;;;;;;-147.86;100.00;-17609.17;105976;1256;61108;-44
2024/01/11 10:17:01;;;;;;;27.10;14.00;;;;;;;-147.86;100.00;-17609.17;105974;1257;75255;-44
2024/01/11 10:19:30;;;;;;;26.90;13.60;;;;;;;-147.86;100.00;-17609.17;105924;1257;67314;-44
2024/01/11 10:22:01;;;;;;;33.80;15.70;;;;;;;-147.86;100.00;-17609.17;105901;1251;74831;-45
2024/01/11 10:24:29;;;;;;;26.90;13.60;;;;;;;-147.86;100.00;-17609.17;105923;1251;59704;-45
2024/01/11 10:26:58;;;;;;;26.60;14.10;;;;;;;-147.86;100.00;-17609.17;105940;1251;59723;-45
2024/01/11 10:29:33;;;;;;;27.00;13.70;;;;;;;-147.86;100.00;-17609.17;105899;1257;75305;-45
2024/01/11 10:32:02;;;;;;;23.70;12.70;;;;;;;-147.86;100.00;-17609.17;105942;1257;64394;-45
2024/01/11 10:34:29;;;;;;;31.70;13.10;;;;;;;-147.86;100.00;-17609.17;105722;1257;70414;-45
2024/01/11 10:36:57;;;;;;;22.50;12.00;;;;;;;-147.86;100.00;-17609.17;105903;1256;63056;-45
2024/01/11 10:39:26;;;;;;;26.60;13.10;;;;;;;-147.86;100.00;-17609.17;105858;1251;62184;-45
2024/01/11 10:42:12;;;;;;;22.60;12.80;;;;;;;-147.86;100.00;-17609.17;105892;1256;71084;-43
2024/01/11 10:44:40;;;;;;;25.20;13.80;;;;;;;-147.86;100.00;-17609.17;105856;1251;65232;-45
2024/01/11 10:47:07;;;;;;;25.80;12.20;;;;;;;-147.86;100.00;-17609.17;105699;1257;72683;-45
2024/01/11 10:49:38;;;;;;;25.30;11.90;;;;;;;-147.86;100.00;-17609.17;105705;1257;63142;-45
2024/01/11 10:52:06;;;;;;;27.00;14.10;;;;;;;-147.86;100.00;-17609.17;105933;1256;59592;-46
2024/01/11 10:54:34;;;;;;;26.10;13.90;;;;;;;-147.86;100.00;-17609.17;105678;1259;73679;-45
2024/01/11 10:57:05;;;;;;;27.40;13.30;;;;;;;-147.86;100.00;-17609.17;105925;1251;64318;-45
2024/01/11 10:59:35;;;;;;;25.20;12.90;;;;;;;-147.86;100.00;-17609.17;105906;1257;71327;-45
2024/01/11 11:02:06;;;;;;;28.30;12.80;;;;;;;-147.86;100.00;-17609.17;105909;1256;61967;-45
2024/01/11 11:04:34;;;;;;;23.90;13.50;;;;;;;-147.86;100.00;-17609.17;106030;1253;62554;-46
2024/01/11 11:07:02;;;;;;;29.50;14.50;;;;;;;-147.86;100.00;-17609.17;105913;1256;75695;-45
2024/01/11 11:09:30;;;;;;;27.10;13.00;;;;;;;-147.86;100.00;-17609.17;105678;1257;66594;-43
2024/01/11 11:11:58;;;;;;;27.30;14.90;;;;;;;-147.86;100.00;-17609.17;105745;1260;71438;-45
2024/01/11 11:14:27;;;;;;;30.20;15.90;;;;;;;-147.86;100.00;-17609.17;105909;1257;59665;-46
2024/01/11 11:16:55;;;;;;;33.30;16.10;;;;;;;-147.86;100.00;-17609.17;105917;1256;60810;-45
2024/01/11 11:19:23;;;;;;;30.00;16.40;;;;;;;-147.86;100.00;-17609.17;105918;1251;73433;-45
2024/01/11 11:21:52;;;;;;;31.10;16.50;;;;;;;-147.86;100.00;-17609.17;105767;1260;67428;-45
2024/01/11 11:24:20;;;;;;;32.70;16.90;;;;;;;-147.86;100.00;-17609.17;105886;1257;71671;-45
2024/01/11 11:26:48;;;;;;;28.70;15.60;;;;;;;-147.86;100.00;-17609.17;105916;1256;60718;-45
2024/01/11 11:29:16;;;;;;;33.90;16.20;;;;;;;-147.86;100.00;-17609.17;105915;1251;59938;-46
2024/01/11 11:31:53;;;;;;;40.40;19.80;;;;;;;-147.86;100.00;-17609.17;105918;1253;72989;-46
2024/01/11 11:34:21;;;;;;;42.40;20.30;;;;;;;-147.86;100.00;-17609.17;105913;1257;65249;-46
2024/01/11 11:36:54;;;;;;;42.40;20.00;;;;;;;-147.86;100.00;-17609.17;105766;1259;72530;-44
2024/01/11 11:39:22;;;;;;;45.60;20.70;;;;;;;-147.86;100.00;-17609.17;105900;1254;59733;-46
2024/01/11 11:41:51;;;;;;;39.50;20.40;;;;;;;-147.86;100.00;-17609.17;105770;1251;59558;-45
2024/01/11 11:44:18;;;;;;;44.60;19.50;;;;;;;-147.86;100.00;-17609.17;105935;1257;75287;-45
2024/01/11 11:46:47;;;;;;;40.50;20.80;;;;;;;-147.86;100.00;-17609.17;105864;1251;65360;-44
2024/01/11 11:49:15;;;;;;;37.50;17.80;;;;;;;-147.86;100.00;-17609.17;105899;1251;73342;-46
2024/01/11 11:51:44;;;;;;;43.30;18.70;;;;;;;-147.86;100.00;-17609.17;105709;1254;62288;-45
2024/01/11 11:54:14;;;;;;;39.30;17.40;;;;;;;-147.86;100.00;-17609.17;105901;1251;60981;-44